Time;durP1;ratioP1;P1;durP2;ratioP2;P2;SDS_P1;SDS_P2;PMS_P1;PMS_P2;Temp;Humidity;BMP_temperature;BMP_pressure;BME280_temperature;BME280_humidity;BME280_pressure;Samples;Min_cycle;Max_cycle;Signal;HPM_P1;HPM_P2
2023/11/06 00:01:26;;;;;;;8.77;2.78;;;12.00;95.20;;;;;;5052602;28;20547;-57
2023/11/06 00:03:51;;;;;;;6.30;2.58;;;12.00;95.20;;;;;;5087079;28;20021;-57
2023/11/06 00:06:17;;;;;;;7.05;2.63;;;12.00;95.20;;;;;;5069104;28;20016;-57
2023/11/06 00:08:42;;;;;;;10.85;3.05;;;12.00;95.30;;;;;;5068908;28;20495;-57
2023/11/06 00:11:08;;;;;;;7.22;2.75;;;12.00;95.30;;;;;;5068931;28;20119;-57
2023/11/06 00:13:34;;;;;;;6.88;2.50;;;12.00;95.20;;;;;;5052341;28;20079;-57
2023/11/06 00:15:59;;;;;;;6.97;2.75;;;12.00;95.20;;;;;;5036121;28;20052;-58
2023/11/06 00:18:25;;;;;;;6.70;2.88;;;12.00;95.20;;;;;;5068589;28;20032;-57
2023/11/06 00:20:51;;;;;;;8.65;2.53;;;12.00;95.20;;;;;;5068707;28;20039;-57
2023/11/06 00:23:16;;;;;;;10.85;2.90;;;12.00;95.20;;;;;;5035731;28;20020;-57
2023/11/06 00:25:42;;;;;;;8.68;2.80;;;11.90;95.30;;;;;;5068767;28;20032;-57
2023/11/06 00:28:07;;;;;;;6.55;2.35;;;11.90;95.30;;;;;;5086678;28;20032;-57
2023/11/06 00:30:33;;;;;;;9.82;2.95;;;11.90;95.30;;;;;;5086433;28;20047;-57
2023/11/06 00:32:58;;;;;;;9.25;2.55;;;11.90;95.30;;;;;;5086613;28;20051;-58
2023/11/06 00:35:24;;;;;;;5.75;2.17;;;11.90;95.30;;;;;;5086488;28;20035;-57
2023/11/06 00:37:49;;;;;;;4.95;2.00;;;11.90;95.30;;;;;;5051542;28;20035;-57
2023/11/06 00:40:15;;;;;;;4.70;1.95;;;11.90;95.40;;;;;;5086428;28;20078;-57
2023/11/06 00:42:40;;;;;;;4.25;2.13;;;11.90;95.40;;;;;;5086399;28;20084;-57
2023/11/06 00:45:06;;;;;;;5.28;2.20;;;12.00;95.40;;;;;;5086898;28;20040;-57
2023/11/06 00:47:32;;;;;;;3.70;2.28;;;11.90;95.40;;;;;;5086787;28;20058;-57
2023/11/06 00:49:57;;;;;;;3.92;2.00;;;11.90;95.40;;;;;;5068426;28;20036;-57
2023/11/06 00:52:24;;;;;;;7.20;2.17;;;11.90;95.40;;;;;;5068151;28;20025;-57
2023/11/06 00:54:49;;;;;;;4.65;2.22;;;11.90;95.40;;;;;;5051153;28;20054;-57
2023/11/06 00:57:15;;;;;;;3.45;1.70;;;11.90;95.30;;;;;;5086388;28;20049;-57
2023/11/06 00:59:41;;;;;;;6.30;2.25;;;11.90;95.40;;;;;;5068636;28;20032;-57
2023/11/06 01:02:06;;;;;;;3.53;1.67;;;11.90;95.40;;;;;;5086869;28;20025;-57
2023/11/06 01:04:32;;;;;;;3.10;1.80;;;11.90;95.40;;;;;;5086365;28;20089;-57
2023/11/06 01:06:58;;;;;;;3.22;2.00;;;11.90;95.40;;;;;;5068078;28;20021;-57
2023/11/06 01:09:24;;;;;;;5.75;1.50;;;11.80;95.40;;;;;;5051560;28;20111;-57
2023/11/06 01:11:50;;;;;;;4.63;1.70;;;11.90;95.40;;;;;;5068034;28;20493;-57
2023/11/06 01:14:16;;;;;;;2.97;2.20;;;11.90;95.40;;;;;;5067974;28;20113;-57
2023/11/06 01:16:41;;;;;;;4.85;2.00;;;11.80;95.40;;;;;;5068184;28;20051;-57
2023/11/06 01:19:08;;;;;;;3.92;2.10;;;11.80;95.40;;;;;;5085837;28;20458;-57
2023/11/06 01:21:33;;;;;;;3.60;1.90;;;11.80;95.60;;;;;;5085817;28;20033;-57
2023/11/06 01:23:59;;;;;;;6.25;1.77;;;11.80;95.40;;;;;;5068280;28;20383;-57
2023/11/06 01:26:24;;;;;;;6.18;1.83;;;11.80;95.40;;;;;;5051367;28;20059;-57
2023/11/06 01:28:50;;;;;;;5.30;1.90;;;11.80;95.40;;;;;;5085946;28;20043;-57
2023/11/06 01:31:17;;;;;;;4.28;1.65;;;11.80;95.40;;;;;;5085649;28;20047;-57
2023/11/06 01:33:43;;;;;;;4.47;1.58;;;11.80;95.40;;;;;;5068168;28;20044;-57
2023/11/06 01:36:09;;;;;;;3.85;1.60;;;11.80;95.40;;;;;;5034705;28;20047;-57
2023/11/06 01:38:36;;;;;;;3.35;1.50;;;11.80;95.30;;;;;;5051201;28;20029;-58
2023/11/06 01:41:03;;;;;;;4.97;1.95;;;11.80;95.30;;;;;;5051750;28;20027;-57
2023/11/06 01:43:28;;;;;;;3.72;1.48;;;11.80;95.30;;;;;;5051347;28;20032;-57
2023/11/06 01:45:54;;;;;;;4.40;1.67;;;11.80;95.30;;;;;;5085690;28;20028;-57
2023/11/06 01:48:19;;;;;;;3.53;1.60;;;11.80;95.30;;;;;;5085887;28;20035;-57
2023/11/06 01:50:45;;;;;;;2.47;1.45;;;11.80;95.30;;;;;;5085714;28;20031;-57
2023/11/06 01:53:11;;;;;;;3.33;1.67;;;11.80;95.30;;;;;;5034611;28;20095;-57
2023/11/06 01:55:36;;;;;;;4.25;1.88;;;11.70;95.30;;;;;;5051152;28;20040;-57
2023/11/06 01:58:02;;;;;;;2.47;1.45;;;11.70;95.30;;;;;;5034535;28;20024;-57
2023/11/06 02:00:27;;;;;;;4.07;1.48;;;11.70;95.20;;;;;;5051221;28;20032;-57
2023/11/06 02:02:53;;;;;;;3.20;1.48;;;11.70;95.20;;;;;;5067689;28;20020;-57
2023/11/06 02:05:19;;;;;;;5.55;1.42;;;11.70;95.20;;;;;;5052508;28;20427;-57
2023/11/06 02:07:47;;;;;;;2.50;1.23;;;11.70;95.20;;;;;;5071185;28;20047;-57
2023/11/06 02:10:16;;;;;;;2.85;1.23;;;11.70;95.20;;;;;;5054915;28;20032;-57
2023/11/06 02:12:41;;;;;;;2.65;1.27;;;11.70;95.20;;;;;;5038732;28;20032;-57
2023/11/06 02:15:10;;;;;;;2.33;0.95;;;11.80;95.20;;;;;;5088992;28;20590;-57
2023/11/06 02:17:36;;;;;;;3.65;1.52;;;11.70;95.50;;;;;;5088913;28;20028;-57
2023/11/06 02:20:03;;;;;;;6.80;1.45;;;11.70;95.20;;;;;;5070944;28;20039;-57
2023/11/06 02:22:28;;;;;;;3.20;1.20;;;11.70;95.10;;;;;;5071197;28;20052;-57
2023/11/06 02:24:54;;;;;;;1.98;1.20;;;11.70;95.20;;;;;;5037847;28;20027;-57
2023/11/06 02:27:19;;;;;;;3.80;1.40;;;11.70;95.10;;;;;;5070978;28;20031;-57
2023/11/06 02:29:46;;;;;;;5.55;1.50;;;11.70;95.10;;;;;;5089313;28;20029;-57
2023/11/06 02:32:11;;;;;;;5.30;1.45;;;11.70;95.10;;;;;;5088896;28;20028;-57
2023/11/06 02:34:37;;;;;;;3.10;1.50;;;11.70;95.10;;;;;;5070846;28;20430;-57
2023/11/06 02:37:04;;;;;;;3.55;1.42;;;11.70;95.10;;;;;;5053909;28;20472;-57
2023/11/06 02:39:34;;;;;;;1.77;1.10;;;11.60;95.10;;;;;;5070717;28;20029;-57
2023/11/06 02:42:03;;;;;;;2.42;1.20;;;11.70;95.10;;;;;;5071340;28;20021;-57
2023/11/06 02:44:28;;;;;;;2.42;1.50;;;11.60;95.10;;;;;;5071296;28;20029;-57
2023/11/06 02:46:54;;;;;;;4.03;1.10;;;11.60;95.10;;;;;;5070482;28;20066;-57
2023/11/06 02:49:19;;;;;;;3.47;1.50;;;11.70;95.10;;;;;;5070635;28;20043;-57
2023/11/06 02:51:45;;;;;;;5.32;1.30;;;11.70;95.40;;;;;;5088430;28;20021;-57
2023/11/06 02:54:10;;;;;;;2.65;1.27;;;11.70;95.40;;;;;;5053799;28;20036;-57
2023/11/06 02:56:36;;;;;;;3.10;1.20;;;11.70;95.10;;;;;;5053838;28;20029;-57
2023/11/06 02:59:04;;;;;;;2.15;1.27;;;11.60;95.10;;;;;;5088367;28;20035;-58
2023/11/06 03:01:29;;;;;;;2.63;1.10;;;11.60;95.10;;;;;;5070461;28;20020;-57
2023/11/06 03:03:55;;;;;;;2.83;1.10;;;11.60;95.10;;;;;;5088287;28;20544;-57
2023/11/06 03:06:20;;;;;;;2.40;1.10;;;11.60;95.10;;;;;;5070175;28;20074;-57
2023/11/06 03:08:46;;;;;;;2.08;1.17;;;11.60;95.40;;;;;;5070151;28;20119;-57
2023/11/06 03:11:13;;;;;;;2.65;1.27;;;11.60;95.10;;;;;;5070251;28;20043;-57
2023/11/06 03:13:39;;;;;;;2.75;1.02;;;11.60;95.10;;;;;;5088050;28;20036;-57
2023/11/06 03:16:04;;;;;;;2.58;1.13;;;11.60;95.10;;;;;;5069519;28;20037;-57
2023/11/06 03:18:30;;;;;;;1.70;1.02;;;11.60;95.10;;;;;;5087631;28;20035;-57
2023/11/06 03:20:55;;;;;;;2.25;1.10;;;11.60;95.10;;;;;;5053013;28;20035;-57
2023/11/06 03:23:21;;;;;;;4.85;1.20;;;11.60;95.10;;;;;;5069836;28;20087;-57
2023/11/06 03:25:47;;;;;;;4.18;1.02;;;11.60;95.10;;;;;;5087720;28;20021;-57
2023/11/06 03:28:12;;;;;;;1.52;0.85;;;11.60;95.40;;;;;;5069705;28;20116;-57
2023/11/06 03:30:38;;;;;;;2.33;1.05;;;11.60;95.20;;;;;;5087667;28;20107;-57
2023/11/06 03:33:03;;;;;;;1.95;1.00;;;11.60;95.10;;;;;;5069583;28;20088;-57
2023/11/06 03:35:29;;;;;;;3.38;1.17;;;11.60;95.10;;;;;;5087489;28;20025;-57
2023/11/06 03:37:55;;;;;;;2.33;0.80;;;11.60;95.20;;;;;;5087487;28;20020;-57
2023/11/06 03:40:21;;;;;;;1.73;0.98;;;11.50;95.10;;;;;;5087306;28;20506;-57
2023/11/06 03:42:47;;;;;;;4.57;1.05;;;11.50;95.10;;;;;;5087251;28;20076;-57
2023/11/06 03:45:13;;;;;;;2.95;0.93;;;11.50;95.10;;;;;;5069620;28;20050;-57
2023/11/06 03:47:39;;;;;;;3.20;1.00;;;11.50;95.10;;;;;;5069360;28;20040;-57
2023/11/06 03:50:05;;;;;;;2.33;0.90;;;11.50;95.10;;;;;;5087256;28;20045;-57
2023/11/06 03:52:30;;;;;;;3.20;0.90;;;11.50;95.10;;;;;;5087130;28;20084;-57
2023/11/06 03:54:56;;;;;;;3.10;1.23;;;11.50;95.10;;;;;;5087226;28;20033;-57
2023/11/06 03:57:22;;;;;;;1.88;1.00;;;11.50;95.20;;;;;;5069174;28;20377;-57
2023/11/06 03:59:47;;;;;;;2.45;1.10;;;11.50;95.20;;;;;;5087107;28;20067;-57
2023/11/06 04:02:13;;;;;;;3.60;1.10;;;11.50;95.20;;;;;;5068867;28;20086;-57
2023/11/06 04:04:38;;;;;;;2.70;1.08;;;11.50;95.20;;;;;;5035808;28;20060;-57
2023/11/06 04:07:04;;;;;;;1.73;0.90;;;11.50;95.20;;;;;;5068987;28;20042;-57
2023/11/06 04:09:29;;;;;;;2.00;1.00;;;11.50;95.20;;;;;;5068922;28;20446;-57
2023/11/06 04:11:55;;;;;;;1.73;0.80;;;11.50;95.20;;;;;;5086776;28;20029;-56
2023/11/06 04:14:20;;;;;;;3.63;1.02;;;11.50;95.20;;;;;;5052336;28;20433;-57
2023/11/06 04:16:46;;;;;;;3.38;1.20;;;11.50;95.20;;;;;;5068673;28;20028;-57
2023/11/06 04:19:12;;;;;;;1.77;0.90;;;11.50;95.20;;;;;;5086619;28;20369;-57
2023/11/06 04:21:38;;;;;;;1.33;0.70;;;11.50;95.20;;;;;;5052149;28;20031;-57
2023/11/06 04:24:04;;;;;;;4.60;1.25;;;11.50;95.20;;;;;;5068461;28;20036;-57
2023/11/06 04:26:30;;;;;;;3.40;0.90;;;11.50;95.50;;;;;;5051775;28;20059;-57
2023/11/06 04:28:56;;;;;;;2.88;1.23;;;11.50;95.20;;;;;;5068686;28;20029;-57
2023/11/06 04:31:21;;;;;;;2.47;0.93;;;11.50;95.20;;;;;;5086180;28;20036;-57
2023/11/06 04:33:47;;;;;;;1.77;1.17;;;11.40;95.20;;;;;;5068446;28;20037;-57
2023/11/06 04:36:12;;;;;;;2.15;0.70;;;11.50;95.20;;;;;;5068547;28;20054;-57
2023/11/06 04:38:38;;;;;;;1.48;0.60;;;11.50;95.20;;;;;;5051755;28;20084;-57
2023/11/06 04:41:04;;;;;;;2.50;1.00;;;11.50;95.20;;;;;;5086316;28;20052;-57
2023/11/06 04:43:29;;;;;;;6.03;1.25;;;11.50;95.20;;;;;;5068414;28;20449;-57
2023/11/06 04:45:55;;;;;;;2.65;0.90;;;11.40;95.20;;;;;;5086468;28;20059;-58
2023/11/06 04:48:20;;;;;;;2.40;1.10;;;11.40;95.20;;;;;;5068297;28;20053;-57
2023/11/06 04:50:46;;;;;;;3.45;0.93;;;11.40;95.20;;;;;;5086140;28;20396;-57
2023/11/06 04:53:12;;;;;;;3.50;0.90;;;11.40;95.20;;;;;;5086519;28;20025;-57
2023/11/06 04:55:37;;;;;;;3.88;0.90;;;11.40;95.20;;;;;;5086145;28;20039;-57
2023/11/06 04:58:04;;;;;;;2.15;0.80;;;11.40;95.20;;;;;;5086209;28;20021;-57
2023/11/06 05:00:30;;;;;;;1.80;0.73;;;11.50;95.20;;;;;;5068683;28;20104;-57
2023/11/06 05:02:55;;;;;;;1.35;0.70;;;11.50;95.20;;;;;;5051711;28;20017;-57
2023/11/06 05:05:21;;;;;;;3.13;0.90;;;11.50;95.20;;;;;;5069528;28;20032;-57
2023/11/06 05:07:47;;;;;;;1.67;0.85;;;11.50;95.20;;;;;;5068267;28;20036;-57
2023/11/06 05:10:12;;;;;;;3.60;1.00;;;11.50;95.20;;;;;;5068245;28;20032;-58
2023/11/06 05:12:38;;;;;;;3.28;0.77;;;11.40;95.20;;;;;;5068145;28;20111;-57
2023/11/06 05:15:05;;;;;;;1.10;0.57;;;11.50;95.20;;;;;;5068241;28;20048;-57
2023/11/06 05:17:30;;;;;;;2.40;0.98;;;11.50;95.20;;;;;;5051371;28;20047;-57
2023/11/06 05:19:56;;;;;;;2.53;0.85;;;11.40;95.20;;;;;;5085873;28;20032;-57
2023/11/06 05:22:22;;;;;;;2.03;0.80;;;11.40;95.10;;;;;;5067848;28;20047;-57
2023/11/06 05:24:47;;;;;;;2.28;0.63;;;11.40;95.10;;;;;;5068251;28;20047;-57
2023/11/06 05:27:13;;;;;;;2.53;1.00;;;11.40;95.10;;;;;;5051408;28;20020;-57
2023/11/06 05:29:39;;;;;;;0.95;0.55;;;11.40;95.10;;;;;;5085964;28;20036;-57
2023/11/06 05:32:05;;;;;;;1.85;0.82;;;11.40;95.10;;;;;;5067837;28;20035;-57
2023/11/06 05:34:32;;;;;;;1.35;0.80;;;11.40;95.10;;;;;;5068174;28;20048;-57
2023/11/06 05:36:58;;;;;;;2.58;0.88;;;11.40;95.10;;;;;;5068053;28;20044;-57
2023/11/06 05:39:24;;;;;;;2.15;0.95;;;11.50;95.10;;;;;;5067941;28;20032;-57
2023/11/06 05:41:49;;;;;;;1.50;0.70;;;11.40;95.00;;;;;;5089781;28;20023;-57
2023/11/06 05:44:15;;;;;;;2.13;0.80;;;11.40;95.00;;;;;;5071765;28;20027;-57
2023/11/06 05:46:43;;;;;;;1.67;0.77;;;11.50;95.10;;;;;;5089660;28;20088;-57
2023/11/06 05:49:08;;;;;;;2.03;0.80;;;11.40;95.10;;;;;;5089435;28;20388;-57
2023/11/06 05:51:34;;;;;;;1.23;0.60;;;11.40;95.00;;;;;;5071770;28;20025;-57
2023/11/06 05:54:02;;;;;;;2.60;0.90;;;11.40;95.00;;;;;;5055035;28;20508;-57
2023/11/06 05:56:28;;;;;;;3.13;0.80;;;11.50;95.10;;;;;;5089157;28;20126;-57
2023/11/06 05:58:53;;;;;;;3.63;1.38;;;11.40;95.00;;;;;;5054513;28;20028;-57
2023/11/06 06:01:19;;;;;;;7.20;1.77;;;11.40;95.00;;;;;;5071471;28;20096;-57
2023/11/06 06:03:44;;;;;;;5.03;1.40;;;11.40;95.00;;;;;;5071463;28;20032;-57
2023/11/06 06:06:10;;;;;;;5.43;1.50;;;11.50;95.00;;;;;;5071383;28;20035;-57
2023/11/06 06:08:36;;;;;;;6.00;1.42;;;11.40;95.00;;;;;;5071069;28;20064;-57
2023/11/06 06:11:02;;;;;;;4.38;1.27;;;11.50;95.00;;;;;;5089161;28;20033;-57
2023/11/06 06:13:27;;;;;;;5.03;1.45;;;11.40;95.00;;;;;;5089110;28;20386;-57
2023/11/06 06:15:53;;;;;;;7.38;1.55;;;11.40;95.00;;;;;;5071215;28;20419;-57
2023/11/06 06:18:18;;;;;;;9.68;1.40;;;11.40;95.00;;;;;;5071122;28;20035;-57
2023/11/06 06:20:44;;;;;;;5.32;1.65;;;11.50;95.10;;;;;;5088892;28;20103;-57
2023/11/06 06:23:10;;;;;;;4.72;1.42;;;11.50;95.10;;;;;;5054305;28;20472;-57
2023/11/06 06:25:36;;;;;;;3.47;1.50;;;11.40;95.10;;;;;;5088792;28;20020;-57
2023/11/06 06:28:04;;;;;;;3.83;1.40;;;11.40;95.10;;;;;;5070804;28;20032;-57
2023/11/06 06:30:29;;;;;;;3.85;1.30;;;11.40;95.10;;;;;;5071236;28;20058;-57
2023/11/06 06:32:55;;;;;;;5.32;1.10;;;11.40;95.10;;;;;;5088803;28;20123;-57
2023/11/06 06:35:20;;;;;;;2.90;1.40;;;11.40;95.10;;;;;;5054021;28;20032;-57
2023/11/06 06:37:46;;;;;;;4.95;1.33;;;11.40;95.10;;;;;;5070569;28;20032;-57
2023/11/06 06:40:12;;;;;;;3.22;1.10;;;11.40;95.10;;;;;;5070724;28;20025;-57
2023/11/06 06:42:37;;;;;;;5.43;1.48;;;11.40;95.10;;;;;;5070561;28;20025;-57
2023/11/06 06:45:04;;;;;;;3.65;1.50;;;11.40;95.10;;;;;;5069573;28;20056;-57
2023/11/06 06:47:30;;;;;;;5.28;1.83;;;11.50;95.10;;;;;;5060475;28;20040;-57
2023/11/06 06:49:55;;;;;;;3.10;0.95;;;11.40;95.00;;;;;;5086564;28;20054;-57
2023/11/06 06:52:21;;;;;;;4.53;1.30;;;11.50;95.00;;;;;;5086530;28;20028;-57
2023/11/06 06:54:46;;;;;;;3.13;1.08;;;11.50;95.00;;;;;;5088307;28;20051;-57
2023/11/06 06:57:12;;;;;;;4.88;1.17;;;11.40;95.00;;;;;;5088410;28;20126;-57
2023/11/06 06:59:38;;;;;;;1.95;0.80;;;11.50;95.00;;;;;;5070222;28;20025;-57
2023/11/06 07:02:04;;;;;;;1.77;0.90;;;11.50;95.00;;;;;;5088311;28;20055;-57
2023/11/06 07:04:29;;;;;;;3.17;1.20;;;11.50;95.00;;;;;;5070217;28;20025;-57
2023/11/06 07:06:56;;;;;;;2.63;1.00;;;11.50;95.00;;;;;;5053609;28;20506;-57
2023/11/06 07:09:23;;;;;;;2.42;0.80;;;11.50;95.00;;;;;;5053663;28;20092;-57
2023/11/06 07:11:49;;;;;;;5.03;1.13;;;11.50;95.40;;;;;;5088026;28;20024;-57
2023/11/06 07:14:14;;;;;;;2.05;1.10;;;11.50;95.00;;;;;;5070123;28;20048;-57
2023/11/06 07:16:40;;;;;;;3.15;1.00;;;11.50;95.00;;;;;;5069860;28;20028;-57
2023/11/06 07:19:05;;;;;;;4.13;1.27;;;11.50;95.00;;;;;;5069718;28;20033;-57
2023/11/06 07:21:32;;;;;;;4.93;1.30;;;11.50;95.00;;;;;;5087465;28;20056;-57
2023/11/06 07:23:57;;;;;;;6.00;1.10;;;11.50;95.00;;;;;;5069821;28;20024;-57
2023/11/06 07:26:23;;;;;;;4.15;1.05;;;11.50;95.00;;;;;;5069750;28;20024;-57
2023/11/06 07:28:49;;;;;;;6.13;1.40;;;11.60;95.00;;;;;;5087452;28;20090;-57
2023/11/06 07:31:14;;;;;;;7.40;1.40;;;11.50;95.00;;;;;;5053052;28;20383;-57
2023/11/06 07:33:40;;;;;;;7.60;1.45;;;11.60;95.00;;;;;;5087585;28;20111;-57
2023/11/06 07:36:07;;;;;;;8.50;1.52;;;11.60;95.00;;;;;;5053113;28;20048;-57
2023/11/06 07:38:32;;;;;;;11.35;1.70;;;11.60;95.10;;;;;;5069238;28;20077;-57
2023/11/06 07:40:58;;;;;;;13.73;2.00;;;11.60;95.00;;;;;;5087505;28;20092;-57
2023/11/06 07:43:23;;;;;;;36.45;2.70;;;11.60;95.00;;;;;;5069279;28;20035;-57
2023/11/06 07:45:49;;;;;;;26.42;2.90;;;11.60;94.90;;;;;;5069499;28;20039;-57
2023/11/06 07:48:15;;;;;;;15.57;2.53;;;11.60;95.00;;;;;;5069311;28;20107;-57
2023/11/06 07:50:40;;;;;;;10.05;1.90;;;11.60;95.00;;;;;;5087271;28;20037;-57
2023/11/06 07:53:06;;;;;;;8.48;1.60;;;11.60;95.00;;;;;;5087475;28;20083;-57
2023/11/06 07:55:32;;;;;;;9.15;2.00;;;11.70;95.00;;;;;;5069166;28;20043;-57
2023/11/06 07:57:57;;;;;;;8.95;1.58;;;11.70;95.00;;;;;;5064216;28;20062;-57
2023/11/06 08:00:23;;;;;;;10.68;1.58;;;11.70;94.90;;;;;;5077691;28;20028;-57
2023/11/06 08:02:50;;;;;;;17.42;2.47;;;11.70;95.00;;;;;;5067516;28;20047;-57
2023/11/06 08:05:22;;;;;;;8.02;2.20;;;11.70;95.00;;;;;;5067459;28;20020;-57
2023/11/06 08:07:49;;;;;;;14.48;1.70;;;11.70;95.00;;;;;;5090503;28;20037;-53
2023/11/06 08:10:15;;;;;;;18.10;2.50;;;11.70;95.00;;;;;;5083599;28;20385;-53
2023/11/06 08:12:41;;;;;;;9.32;2.17;;;11.70;94.90;;;;;;5066853;28;20085;-54
2023/11/06 08:15:12;;;;;;;11.30;2.33;;;11.80;94.90;;;;;;5042352;28;20033;-53
2023/11/06 08:17:37;;;;;;;17.77;2.15;;;11.70;94.90;;;;;;5093539;28;20058;-53
2023/11/06 08:20:03;;;;;;;14.75;2.25;;;11.70;94.90;;;;;;5089200;28;20020;-53
2023/11/06 08:22:31;;;;;;;18.10;2.50;;;11.80;94.90;;;;;;5061030;28;20087;-53
2023/11/06 08:24:57;;;;;;;18.35;2.40;;;11.80;94.90;;;;;;5082819;28;20020;-53
2023/11/06 08:27:22;;;;;;;20.05;2.25;;;11.80;95.00;;;;;;5077282;28;20028;-53
2023/11/06 08:29:48;;;;;;;13.77;2.50;;;11.80;94.90;;;;;;5099002;28;20040;-53
2023/11/06 08:32:14;;;;;;;10.30;1.88;;;11.80;94.90;;;;;;5088245;28;20084;-53
2023/11/06 08:34:42;;;;;;;15.02;2.53;;;11.80;94.90;;;;;;5084580;28;20024;-53
2023/11/06 08:37:11;;;;;;;19.73;2.75;;;11.80;94.80;;;;;;5058654;28;20028;-53
2023/11/06 08:39:45;;;;;;;12.43;2.88;;;11.90;94.80;;;;;;5091268;28;20081;-53
2023/11/06 08:42:11;;;;;;;12.43;2.07;;;11.90;94.70;;;;;;5064887;28;20282;-53
2023/11/06 08:44:40;;;;;;;12.40;2.28;;;11.90;95.00;;;;;;5064702;28;20028;-53
2023/11/06 08:47:06;;;;;;;28.90;2.75;;;11.90;94.70;;;;;;5057686;28;20025;-53
2023/11/06 08:49:31;;;;;;;18.10;3.67;;;11.90;94.60;;;;;;5055789;28;20064;-53
2023/11/06 08:51:57;;;;;;;9.90;2.05;;;12.00;94.70;;;;;;5053547;28;20043;-54
2023/11/06 08:54:23;;;;;;;17.48;2.88;;;11.90;94.60;;;;;;5085894;28;20025;-53
2023/11/06 08:56:48;;;;;;;15.40;2.47;;;11.90;94.60;;;;;;5077530;28;20032;-53
2023/11/06 08:59:14;;;;;;;22.77;2.83;;;12.00;94.60;;;;;;5067438;28;20047;-55
2023/11/06 09:01:40;;;;;;;15.68;2.03;;;12.00;94.60;;;;;;5069868;28;20017;-55
2023/11/06 09:04:09;;;;;;;88.65;8.70;;;12.00;94.50;;;;;;5061117;28;20071;-55
2023/11/06 09:06:39;;;;;;;36.33;3.97;;;12.00;94.50;;;;;;5069004;28;20072;-54
2023/11/06 09:09:08;;;;;;;33.13;5.45;;;12.00;94.50;;;;;;5065025;28;20052;-54
2023/11/06 09:11:35;;;;;;;71.47;8.02;;;12.00;94.40;;;;;;5067463;28;20044;-54
2023/11/06 09:14:03;;;;;;;35.90;5.03;;;12.00;94.40;;;;;;5076687;28;20035;-55
2023/11/06 09:16:30;;;;;;;38.80;4.63;;;12.00;94.40;;;;;;5091802;28;20448;-54
2023/11/06 09:18:56;;;;;;;34.03;4.20;;;12.00;94.30;;;;;;5058093;28;20041;-55
2023/11/06 09:21:21;;;;;;;28.38;3.85;;;12.00;94.30;;;;;;5055056;28;20033;-55
2023/11/06 09:23:47;;;;;;;20.27;3.15;;;12.00;94.30;;;;;;5055261;28;20107;-55
2023/11/06 09:26:13;;;;;;;38.22;4.30;;;12.10;94.20;;;;;;5075255;28;20491;-55
2023/11/06 09:28:38;;;;;;;21.85;3.70;;;12.10;94.20;;;;;;5070907;28;20081;-55
2023/11/06 09:31:04;;;;;;;37.00;3.75;;;12.10;94.20;;;;;;5087844;28;20135;-55
2023/11/06 09:33:30;;;;;;;26.63;3.33;;;12.10;94.20;;;;;;5054989;28;20081;-54
2023/11/06 09:35:55;;;;;;;23.77;3.55;;;12.10;94.20;;;;;;5089793;28;20039;-54
2023/11/06 09:38:21;;;;;;;32.75;4.22;;;12.10;94.10;;;;;;5089545;28;20435;-52
2023/11/06 09:40:47;;;;;;;23.83;3.67;;;12.10;94.10;;;;;;5054645;28;20025;-52
2023/11/06 09:43:13;;;;;;;40.90;5.38;;;12.20;94.00;;;;;;5070354;28;20020;-52
2023/11/06 09:45:38;;;;;;;33.97;5.03;;;12.20;94.00;;;;;;5053522;28;20048;-52
2023/11/06 09:48:06;;;;;;;41.17;4.80;;;12.20;94.00;;;;;;5054998;28;20028;-52
2023/11/06 09:50:32;;;;;;;24.60;4.68;;;12.20;93.90;;;;;;5071491;28;20043;-55
2023/11/06 09:52:57;;;;;;;42.22;5.18;;;12.20;93.90;;;;;;5038316;28;20092;-56
2023/11/06 09:55:23;;;;;;;40.15;5.22;;;12.20;93.80;;;;;;5054987;28;20040;-56
2023/11/06 09:57:49;;;;;;;43.38;5.85;;;12.20;93.70;;;;;;5054675;28;20047;-56
2023/11/06 10:00:16;;;;;;;405.27;35.75;;;12.30;93.70;;;;;;5071467;28;20036;-56
2023/11/06 10:02:43;;;;;;;97.22;11.38;;;12.30;93.70;;;;;;5071411;28;20035;-56
2023/11/06 10:05:20;;;;;;;47.17;7.93;;;12.30;93.60;;;;;;5089355;28;20509;-56
2023/11/06 10:07:48;;;;;;;45.33;5.85;;;12.40;93.60;;;;;;5071714;28;20021;-56
2023/11/06 10:10:16;;;;;;;36.72;5.07;;;12.30;93.50;;;;;;5055264;28;20027;-56
2023/11/06 10:12:42;;;;;;;41.83;6.20;;;12.40;93.50;;;;;;5071822;28;20032;-56
2023/11/06 10:15:08;;;;;;;48.55;5.60;;;12.40;93.50;;;;;;5054006;28;20031;-56
2023/11/06 10:17:34;;;;;;;59.20;5.70;;;12.40;93.50;;;;;;5054230;28;20028;-56
2023/11/06 10:20:05;;;;;;;115.60;12.95;;;12.50;93.40;;;;;;5071045;28;20051;-56
2023/11/06 10:22:31;;;;;;;104.25;10.40;;;12.50;93.40;;;;;;5071421;28;20056;-56
2023/11/06 10:24:56;;;;;;;77.60;9.25;;;12.50;93.40;;;;;;5054190;28;20032;-56
2023/11/06 10:27:24;;;;;;;43.20;5.88;;;12.50;93.30;;;;;;5070399;28;20060;-56
2023/11/06 10:30:09;;;;;;;35.55;5.43;;;12.50;93.30;;;;;;5071045;28;20039;-55
2023/11/06 10:32:35;;;;;;;56.25;6.53;;;12.50;93.20;;;;;;5071866;28;20032;-56
2023/11/06 10:35:01;;;;;;;36.55;5.00;;;12.50;93.20;;;;;;5053782;28;20033;-56
2023/11/06 10:37:28;;;;;;;35.92;4.22;;;12.50;93.30;;;;;;5088499;28;20533;-56
2023/11/06 10:39:55;;;;;;;31.27;3.92;;;12.60;93.20;;;;;;5088414;28;20024;-56
2023/11/06 10:42:24;;;;;;;24.10;4.07;;;12.60;93.10;;;;;;5070804;28;20067;-56
2023/11/06 10:44:55;;;;;;;44.28;5.22;;;12.60;93.10;;;;;;5088595;28;20029;-55
2023/11/06 10:47:26;;;;;;;54.40;6.13;;;12.60;93.10;;;;;;5054207;28;20028;-56
2023/11/06 10:49:59;;;;;;;48.55;6.00;;;12.60;93.10;;;;;;5037479;28;20100;-56
2023/11/06 10:52:25;;;;;;;63.60;6.47;;;12.60;93.10;;;;;;5070268;28;20040;-55
2023/11/06 10:54:50;;;;;;;45.83;5.80;;;12.70;93.10;;;;;;5036953;28;20036;-56
2023/11/06 10:57:16;;;;;;;37.17;4.40;;;12.90;93.20;;;;;;5088208;28;20088;-56
2023/11/06 10:59:42;;;;;;;23.20;3.60;;;12.70;93.20;;;;;;5049645;28;20482;-56
2023/11/06 11:02:07;;;;;;;27.35;4.22;;;12.70;93.10;;;;;;5067916;28;20055;-56
2023/11/06 11:04:33;;;;;;;34.10;4.13;;;12.70;93.10;;;;;;5069195;28;20031;-55
2023/11/06 11:06:59;;;;;;;29.42;4.63;;;12.70;93.00;;;;;;5069839;28;20078;-55
2023/11/06 11:09:25;;;;;;;34.42;4.20;;;12.80;93.10;;;;;;5069814;28;20365;-56
2023/11/06 11:11:51;;;;;;;41.05;5.43;;;12.70;93.00;;;;;;5069693;28;20032;-56
2023/11/06 11:14:16;;;;;;;47.35;5.63;;;12.70;93.00;;;;;;5069765;28;20055;-55
2023/11/06 11:16:45;;;;;;;43.10;5.88;;;12.80;93.10;;;;;;5051404;28;20028;-55
2023/11/06 11:19:31;;;;;;;34.35;5.10;;;12.80;93.10;;;;;;5067380;28;20029;-56
2023/11/06 11:22:02;;;;;;;20.42;4.68;;;12.80;93.10;;;;;;5047391;28;20036;-55
2023/11/06 11:24:49;;;;;;;37.38;4.70;;;12.80;93.00;;;;;;5064596;28;20025;-55
2023/11/06 11:27:21;;;;;;;21.88;3.80;;;12.90;93.00;;;;;;5067115;28;20392;-56
2023/11/06 11:29:58;;;;;;;43.78;5.00;;;12.90;92.90;;;;;;5068085;28;20035;-56
2023/11/06 11:32:30;;;;;;;51.13;6.38;;;12.90;93.00;;;;;;5086733;28;20535;-55
2023/11/06 11:34:57;;;;;;;43.85;5.70;;;12.90;93.30;;;;;;5087306;28;20032;-55
2023/11/06 11:37:35;;;;;;;35.63;5.28;;;12.90;93.00;;;;;;5051711;28;20028;-56
2023/11/06 11:40:02;;;;;;;46.28;5.55;;;12.90;93.00;;;;;;5087169;28;20101;-56
2023/11/06 11:42:28;;;;;;;42.40;6.20;;;13.00;93.00;;;;;;5069489;28;20028;-55
2023/11/06 11:44:57;;;;;;;38.33;4.35;;;13.00;93.00;;;;;;5068712;28;20169;-55
2023/11/06 11:47:23;;;;;;;54.38;6.20;;;13.00;92.90;;;;;;5068743;28;20038;-55
2023/11/06 11:49:49;;;;;;;51.13;5.50;;;13.00;92.80;;;;;;5068681;28;20056;-55
2023/11/06 11:52:19;;;;;;;47.15;5.82;;;13.00;92.70;;;;;;5068214;28;20431;-56
2023/11/06 11:54:45;;;;;;;49.85;5.85;;;13.00;92.70;;;;;;5069317;28;20033;-55
2023/11/06 11:57:11;;;;;;;33.67;5.82;;;13.10;92.70;;;;;;5068571;28;20030;-55
2023/11/06 11:59:38;;;;;;;48.95;5.05;;;13.10;92.70;;;;;;5068572;28;20095;-56
2023/11/06 12:02:05;;;;;;;46.78;6.93;;;13.10;92.70;;;;;;5086525;28;20084;-55
2023/11/06 12:04:31;;;;;;;57.58;6.93;;;13.10;92.70;;;;;;5068751;28;20036;-56
2023/11/06 12:07:05;;;;;;;42.58;5.50;;;13.10;92.70;;;;;;5068641;28;20047;-55
2023/11/06 12:10:03;;;;;;;70.65;7.75;;;13.10;92.70;;;;;;5068818;28;20029;-55
2023/11/06 12:12:29;;;;;;;52.78;5.93;;;13.20;92.60;;;;;;5046596;28;20036;-55
2023/11/06 12:14:56;;;;;;;95.63;11.45;;;13.20;92.60;;;;;;5067682;28;20020;-55
2023/11/06 12:17:35;;;;;;;62.67;7.00;;;13.20;92.70;;;;;;5068158;28;20033;-56
2023/11/06 12:20:03;;;;;;;56.60;7.07;;;13.20;92.70;;;;;;5054678;28;20044;-55
2023/11/06 12:22:31;;;;;;;33.38;5.35;;;13.20;92.60;;;;;;5071969;28;20054;-56
2023/11/06 12:24:56;;;;;;;43.58;5.32;;;13.20;92.70;;;;;;5055872;28;20024;-55
2023/11/06 12:27:34;;;;;;;18.02;3.15;;;13.20;92.60;;;;;;5068154;28;20503;-55
2023/11/06 12:30:07;;;;;;;33.45;3.85;;;13.30;92.60;;;;;;5058595;28;20480;-55
2023/11/06 12:32:36;;;;;;;372.58;36.63;;;13.30;92.50;;;;;;5031980;28;20380;-55
2023/11/06 12:35:20;;;;;;;95.05;10.93;;;13.30;92.30;;;;;;5065083;28;20045;-56
2023/11/06 12:37:59;;;;;;;62.67;9.32;;;13.30;92.20;;;;;;5040788;28;20666;-55
2023/11/06 12:40:27;;;;;;;58.97;8.50;;;13.40;92.20;;;;;;5065132;28;20025;-55